createdAt,value
2022-09-11T00:01:13.236Z,12.20
2022-09-11T00:03:42.532Z,12.20
2022-09-11T00:06:13.285Z,12.20
2022-09-11T00:08:42.196Z,12.30
2022-09-11T00:11:11.921Z,12.30
2022-09-11T00:13:41.502Z,12.30
2022-09-11T00:16:21.515Z,12.30
2022-09-11T00:18:49.925Z,12.30
2022-09-11T00:21:18.891Z,12.20
2022-09-11T00:23:49.015Z,12.20
2022-09-11T00:26:17.486Z,12.20
2022-09-11T00:28:46.212Z,12.20
2022-09-11T00:31:15.976Z,12.20
2022-09-11T00:33:45.598Z,12.30
2022-09-11T00:36:19.391Z,12.20
2022-09-11T00:38:47.954Z,12.20
2022-09-11T00:41:17.758Z,12.20
2022-09-11T00:43:59.492Z,12.10
2022-09-11T00:46:35.187Z,12.10
2022-09-11T00:49:12.109Z,12.10
2022-09-11T00:51:41.065Z,12.10
2022-09-11T00:54:13.715Z,12.10
2022-09-11T00:56:43.961Z,12.10
2022-09-11T00:59:13.430Z,12.10
2022-09-11T01:01:41.996Z,12.10
2022-09-11T01:04:12.174Z,12.10
2022-09-11T01:06:40.696Z,12.20
2022-09-11T01:09:08.428Z,12.10
2022-09-11T01:11:47.950Z,12.10
2022-09-11T01:14:34.339Z,12.10
2022-09-11T01:17:13.108Z,12.20
2022-09-11T01:19:59.974Z,12.20
2022-09-11T01:22:47.698Z,12.20
2022-09-11T01:25:27.806Z,12.20
2022-09-11T01:28:00.818Z,12.10
2022-09-11T01:30:37.190Z,12.20
2022-09-11T01:33:17.209Z,12.20
2022-09-11T01:35:53.243Z,12.20
2022-09-11T01:38:28.989Z,12.10
2022-09-11T01:40:59.751Z,12.10
2022-09-11T01:43:33.701Z,12.00
2022-09-11T01:46:04.167Z,12.00
2022-09-11T01:48:38.945Z,12.00
2022-09-11T01:51:10.260Z,12.10
2022-09-11T01:53:42.482Z,12.10
2022-09-11T01:56:19.458Z,12.20
2022-09-11T01:58:49.634Z,12.20
2022-09-11T02:01:20.825Z,12.20
2022-09-11T02:03:54.292Z,12.20
2022-09-11T02:06:28.064Z,12.20
2022-09-11T02:08:59.787Z,12.20
2022-09-11T02:11:30.109Z,12.20
2022-09-11T02:14:06.035Z,12.30
2022-09-11T02:16:45.246Z,12.30
2022-09-11T02:19:15.533Z,12.30
2022-09-11T02:21:44.765Z,12.40
2022-09-11T02:24:12.574Z,12.40
2022-09-11T02:26:44.826Z,12.40
2022-09-11T02:29:15.010Z,12.40
2022-09-11T02:31:44.207Z,12.40
2022-09-11T02:34:14.397Z,12.40
2022-09-11T02:53:20.822Z,12.50
2022-09-11T03:18:22.959Z,12.60
2022-09-11T03:30:01.249Z,12.40
2022-09-11T03:35:32.632Z,12.40
2022-09-11T03:38:53.088Z,12.40
2022-09-11T03:42:07.605Z,12.40
2022-09-11T04:02:57.316Z,12.30
2022-09-11T04:24:07.001Z,12.10
2022-09-11T04:58:55.897Z,12.20
2022-09-11T05:01:27.090Z,12.20
2022-09-11T05:03:56.164Z,12.20
2022-09-11T05:06:24.843Z,12.20
2022-09-11T05:08:52.718Z,12.20
2022-09-11T05:11:21.681Z,12.20
2022-09-11T05:13:49.637Z,12.20
2022-09-11T05:16:19.403Z,12.20
2022-09-11T05:18:52.866Z,12.20
2022-09-11T05:21:22.419Z,12.20
2022-09-11T05:23:51.550Z,12.20
2022-09-11T05:26:21.079Z,12.20
2022-09-11T05:28:49.074Z,12.30
2022-09-11T05:31:18.312Z,12.30
2022-09-11T05:33:46.834Z,12.20
2022-09-11T05:36:17.001Z,12.20
2022-09-11T05:38:45.335Z,12.30
2022-09-11T05:41:15.522Z,12.30
2022-09-11T05:43:44.013Z,12.30
2022-09-11T05:46:13.783Z,12.30
2022-09-11T05:48:42.002Z,12.40
2022-09-11T05:51:12.808Z,12.40
2022-09-11T05:53:42.445Z,12.40
2022-09-11T05:56:12.777Z,12.50
2022-09-11T05:58:40.715Z,12.40
2022-09-11T06:01:10.142Z,12.40
2022-09-11T06:03:39.039Z,12.40
2022-09-11T06:06:08.712Z,12.50
2022-09-11T06:08:39.649Z,12.60
2022-09-11T06:11:09.444Z,12.70
2022-09-11T06:13:40.005Z,12.70
2022-09-11T06:16:15.871Z,12.80
2022-09-11T06:18:48.986Z,12.80
2022-09-11T06:21:20.163Z,12.80
2022-09-11T06:23:49.161Z,12.80
2022-09-11T06:26:21.235Z,12.90
2022-09-11T06:28:49.143Z,12.80
2022-09-11T06:31:18.573Z,12.70
2022-09-11T06:33:47.307Z,12.70
2022-09-11T06:36:17.131Z,12.70
2022-09-11T06:38:45.319Z,12.50
2022-09-11T06:41:15.777Z,12.40
2022-09-11T06:43:45.331Z,12.30
2022-09-11T06:46:14.835Z,12.30
2022-09-11T06:48:43.753Z,12.40
2022-09-11T06:51:13.551Z,12.40
2022-09-11T06:53:42.132Z,12.50
2022-09-11T06:56:13.220Z,12.60
2022-09-11T06:58:41.167Z,12.80
2022-09-11T07:01:13.592Z,12.80
2022-09-11T07:03:45.721Z,12.90
2022-09-11T07:06:13.755Z,13.00
2022-09-11T07:08:41.632Z,12.90
2022-09-11T07:11:11.389Z,12.80
2022-09-11T07:13:39.999Z,12.90
2022-09-11T07:16:10.885Z,12.80
2022-09-11T07:18:40.860Z,12.80
2022-09-11T07:21:11.177Z,12.80
2022-09-11T07:23:39.722Z,12.90
2022-09-11T07:26:09.667Z,12.90
2022-09-11T07:28:38.605Z,12.90
2022-09-11T07:31:10.517Z,12.80
2022-09-11T07:33:40.599Z,12.90
2022-09-11T07:36:12.152Z,13.00
2022-09-11T07:38:41.633Z,13.10
2022-09-11T07:41:10.625Z,13.00
2022-09-11T07:43:39.603Z,13.20
2022-09-11T07:46:08.264Z,13.30
2022-09-11T07:48:36.310Z,13.30
2022-09-11T07:51:08.026Z,13.60
2022-09-11T07:53:39.170Z,13.70
2022-09-11T07:56:09.481Z,14.00
2022-09-11T07:58:38.966Z,14.00
2022-09-11T08:01:07.492Z,14.10
2022-09-11T08:03:36.279Z,14.00
2022-09-11T08:06:08.854Z,14.00
2022-09-11T08:08:38.374Z,14.00
2022-09-11T08:11:08.316Z,14.30
2022-09-11T08:13:36.695Z,14.40
2022-09-11T08:16:04.920Z,14.70
2022-09-11T08:18:35.128Z,14.90
2022-09-11T08:21:12.611Z,15.10
2022-09-11T08:23:42.712Z,14.90
2022-09-11T08:26:12.561Z,14.80
2022-09-11T08:28:42.874Z,14.80
2022-09-11T08:31:11.743Z,14.70
2022-09-11T08:33:40.408Z,14.80
2022-09-11T08:36:14.569Z,14.90
2022-09-11T08:38:43.613Z,15.00
2022-09-11T08:41:20.429Z,15.20
2022-09-11T08:43:52.081Z,15.30
2022-09-11T08:46:23.553Z,15.50
2022-09-11T08:49:07.395Z,16.00
2022-09-11T08:51:37.204Z,16.50
2022-09-11T08:54:05.270Z,17.50
2022-09-11T08:56:36.153Z,17.40
2022-09-11T08:59:19.736Z,16.70
2022-09-11T09:01:56.172Z,16.20
2022-09-11T09:04:42.296Z,15.90
2022-09-11T09:07:32.145Z,15.80
2022-09-11T09:10:09.605Z,15.70
2022-09-11T09:12:47.053Z,15.70
2022-09-11T09:15:29.359Z,15.80
2022-09-11T09:18:02.722Z,16.20
2022-09-11T09:20:35.238Z,16.60
2022-09-11T09:23:11.841Z,17.00
2022-09-11T09:25:43.066Z,16.90
2022-09-11T09:28:25.991Z,16.80
2022-09-11T09:30:57.357Z,16.70
2022-09-11T09:33:31.757Z,16.40
2022-09-11T09:36:12.987Z,16.10
2022-09-11T09:38:43.947Z,15.90
2022-09-11T09:41:37.469Z,15.70
2022-09-11T09:44:19.490Z,16.50
2022-09-11T09:46:51.248Z,17.20
2022-09-11T09:49:24.046Z,18.10
2022-09-11T09:51:52.613Z,18.30
2022-09-11T09:54:26.538Z,18.80
2022-09-11T09:56:59.873Z,18.20
2022-09-11T09:59:33.382Z,18.30
2022-09-11T10:02:01.283Z,18.00
2022-09-11T10:04:30.283Z,17.80
2022-09-11T10:07:10.622Z,17.50
2022-09-11T10:09:47.489Z,18.20
2022-09-11T10:12:19.366Z,19.10
2022-09-11T10:14:53.119Z,19.20
2022-09-11T10:17:22.918Z,18.90
2022-09-11T10:19:54.558Z,18.00
2022-09-11T10:22:28.332Z,17.30
2022-09-11T10:25:11.364Z,17.00
2022-09-11T10:27:51.980Z,17.10
2022-09-11T10:30:28.937Z,17.40
2022-09-11T10:33:02.609Z,17.70
2022-09-11T10:35:33.119Z,17.60
2022-09-11T10:38:18.269Z,17.70
2022-09-11T10:41:03.747Z,18.20
2022-09-11T10:43:37.809Z,18.80
2022-09-11T10:46:22.102Z,19.20
2022-09-11T10:48:55.162Z,19.50
2022-09-11T10:51:24.247Z,19.60
2022-09-11T10:54:03.919Z,20.10
2022-09-11T10:56:36.872Z,20.20
2022-09-11T10:59:12.767Z,19.80
2022-09-11T11:01:40.678Z,19.60
2022-09-11T11:04:12.366Z,20.20
2022-09-11T11:06:55.906Z,20.20
2022-09-11T11:09:38.835Z,19.50
2022-09-11T11:12:31.536Z,18.90
2022-09-11T11:15:30.174Z,19.40
2022-09-11T11:18:32.831Z,19.70
2022-09-11T11:21:12.837Z,20.40
2022-09-11T11:23:52.734Z,20.40
2022-09-11T11:26:37.072Z,20.60
2022-09-11T11:29:31.867Z,20.80
2022-09-11T11:32:16.815Z,20.70
2022-09-11T11:35:07.588Z,20.40
2022-09-11T11:37:41.416Z,20.60
2022-09-11T11:40:18.637Z,20.40
2022-09-11T11:42:55.399Z,20.50
2022-09-11T11:45:31.919Z,20.70
2022-09-11T11:48:05.234Z,20.30
2022-09-11T11:50:40.352Z,20.50
2022-09-11T11:53:13.942Z,20.50
2022-09-11T11:55:51.870Z,20.60
2022-09-11T11:58:25.097Z,20.30
2022-09-11T12:00:59.372Z,20.40
2022-09-11T12:03:33.655Z,20.30
2022-09-11T12:06:02.978Z,19.80
2022-09-11T12:08:30.840Z,19.30
2022-09-11T12:11:01.497Z,19.40
2022-09-11T12:13:32.430Z,19.20
2022-09-11T12:16:12.087Z,19.30
2022-09-11T12:18:42.101Z,19.00
2022-09-11T12:21:40.027Z,18.90
2022-09-11T12:24:15.499Z,18.80
2022-09-11T12:26:43.311Z,19.20
2022-09-11T12:29:51.586Z,19.70
2022-09-11T12:32:29.005Z,19.60
2022-09-11T12:35:12.924Z,19.60
2022-09-11T12:37:40.955Z,19.80
2022-09-11T12:40:19.111Z,20.10
2022-09-11T12:42:56.093Z,20.30
2022-09-11T12:45:36.129Z,20.30
2022-09-11T12:48:14.733Z,20.60
2022-09-11T12:50:50.853Z,20.30
2022-09-11T12:53:23.815Z,19.90
2022-09-11T12:56:03.610Z,20.30
2022-09-11T12:58:36.818Z,20.90
2022-09-11T13:01:17.661Z,21.30
2022-09-11T13:03:57.099Z,21.60
2022-09-11T13:06:36.681Z,21.70
2022-09-11T13:09:05.780Z,21.00
2022-09-11T13:11:42.566Z,20.60
2022-09-11T13:14:46.051Z,20.00
2022-09-11T13:17:26.866Z,19.90
2022-09-11T13:20:10.466Z,20.00
2022-09-11T13:22:39.282Z,20.10
2022-09-11T13:25:12.189Z,20.10
2022-09-11T13:27:42.371Z,20.50
2022-09-11T13:30:14.350Z,20.80
2022-09-11T13:32:43.145Z,20.60
2022-09-11T13:35:16.895Z,20.50
2022-09-11T13:37:47.763Z,20.70
2022-09-11T13:40:22.312Z,20.10
2022-09-11T13:42:50.695Z,20.20
2022-09-11T13:45:22.321Z,20.60
2022-09-11T13:47:50.269Z,20.70
2022-09-11T13:50:20.820Z,20.80
2022-09-11T13:52:50.113Z,20.60
2022-09-11T13:55:20.175Z,20.20
2022-09-11T13:57:53.458Z,20.40
2022-09-11T14:00:42.183Z,20.60
2022-09-11T14:03:22.702Z,20.90
2022-09-11T14:05:54.894Z,21.00
2022-09-11T14:08:32.606Z,21.20
2022-09-11T14:11:03.359Z,21.50
2022-09-11T14:13:34.261Z,21.40
2022-09-11T14:16:06.641Z,21.20
2022-09-11T14:18:40.984Z,21.20
2022-09-11T14:21:16.373Z,21.40
2022-09-11T14:23:48.395Z,21.70
2022-09-11T14:26:18.555Z,21.60
2022-09-11T14:29:02.552Z,21.20
2022-09-11T14:31:36.491Z,21.20
2022-09-11T14:34:17.063Z,21.80
2022-09-11T14:36:50.032Z,21.90
2022-09-11T14:39:25.510Z,21.00
2022-09-11T14:41:55.075Z,20.80
2022-09-11T14:44:24.825Z,21.20
2022-09-11T14:46:52.691Z,21.70
2022-09-11T14:49:20.438Z,21.60
2022-09-11T14:51:55.275Z,21.60
2022-09-11T14:54:23.901Z,21.50
2022-09-11T14:56:52.563Z,21.80
2022-09-11T14:59:20.559Z,21.90
2022-09-11T15:01:52.121Z,21.70
2022-09-11T15:04:21.409Z,21.70
2022-09-11T15:06:53.036Z,21.70
2022-09-11T15:09:20.997Z,21.70
2022-09-11T15:11:50.379Z,21.90
2022-09-11T15:14:32.553Z,22.20
2022-09-11T15:17:08.303Z,21.90
2022-09-11T15:19:36.092Z,21.50
2022-09-11T15:22:07.117Z,21.30
2022-09-11T15:24:35.532Z,21.60
2022-09-11T15:27:03.606Z,21.50
2022-09-11T15:29:32.075Z,21.50
2022-09-11T15:32:01.938Z,21.40
2022-09-11T15:34:31.647Z,20.80
2022-09-11T15:37:00.236Z,20.30
2022-09-11T15:39:30.343Z,20.00
2022-09-11T15:41:59.155Z,19.80
2022-09-11T15:44:28.675Z,19.70
2022-09-11T15:46:58.467Z,19.80
2022-09-11T15:49:28.129Z,19.80
2022-09-11T15:51:56.300Z,19.80
2022-09-11T15:54:24.423Z,19.80
2022-09-11T15:56:53.945Z,19.80
2022-09-11T15:59:21.822Z,19.60
2022-09-11T16:01:49.932Z,19.50
2022-09-11T16:04:22.912Z,19.50
2022-09-11T16:06:51.495Z,19.40
2022-09-11T16:09:22.162Z,19.30
2022-09-11T16:11:51.535Z,19.10
2022-09-11T16:14:23.261Z,19.00
2022-09-11T16:16:51.763Z,19.00
2022-09-11T16:19:22.707Z,18.90
2022-09-11T16:21:52.781Z,18.90
2022-09-11T16:24:20.569Z,18.70
2022-09-11T16:26:48.431Z,18.70
2022-09-11T16:29:17.974Z,18.60
2022-09-11T16:31:47.191Z,18.60
2022-09-11T16:34:15.718Z,18.50
2022-09-11T16:36:43.499Z,18.50
2022-09-11T16:39:13.633Z,18.40
2022-09-11T16:41:41.692Z,18.40
2022-09-11T16:44:13.847Z,18.30
2022-09-11T16:46:42.271Z,18.20
2022-09-11T16:49:16.424Z,18.10
2022-09-11T16:51:45.832Z,18.10
2022-09-11T16:54:13.839Z,18.00
2022-09-11T16:56:45.839Z,18.00
2022-09-11T16:59:13.955Z,17.90
2022-09-11T17:01:41.844Z,17.90
2022-09-11T17:04:11.079Z,17.90
2022-09-11T17:06:38.898Z,17.80
2022-09-11T17:09:07.078Z,17.70
2022-09-11T17:11:36.299Z,17.70
2022-09-11T17:14:04.530Z,17.70
2022-09-11T17:16:35.623Z,17.70
2022-09-11T17:19:03.549Z,17.60
2022-09-11T17:21:35.820Z,17.60
2022-09-11T17:24:04.691Z,17.50
2022-09-11T17:26:32.729Z,17.50
2022-09-11T17:29:02.459Z,17.40
2022-09-11T17:31:30.806Z,17.30
2022-09-11T17:33:58.683Z,17.20
2022-09-11T17:36:26.547Z,17.20
2022-09-11T17:38:58.655Z,17.10
2022-09-11T17:41:26.797Z,17.00
2022-09-11T17:43:54.631Z,17.00
2022-09-11T17:46:24.737Z,17.00
2022-09-11T17:48:52.813Z,16.80
2022-09-11T17:51:22.989Z,16.70
2022-09-11T17:53:52.547Z,16.60
2022-09-11T17:56:23.186Z,16.40
2022-09-11T17:58:52.311Z,16.20
2022-09-11T18:01:21.078Z,16.10
2022-09-11T18:03:52.504Z,16.00
2022-09-11T18:06:25.324Z,15.80
2022-09-11T18:08:54.424Z,15.70
2022-09-11T18:11:24.066Z,15.60
2022-09-11T18:13:51.848Z,15.50
2022-09-11T18:16:19.673Z,15.30
2022-09-11T18:18:47.482Z,15.20
2022-09-11T18:21:15.945Z,15.20
2022-09-11T18:23:46.182Z,15.10
2022-09-11T18:26:22.025Z,15.00
2022-09-11T18:28:51.621Z,15.00
2022-09-11T18:31:20.134Z,15.00
2022-09-11T18:33:54.521Z,14.90
2022-09-11T18:36:23.469Z,14.90
2022-09-11T18:38:51.807Z,14.80
2022-09-11T18:41:20.008Z,14.90
2022-09-11T18:43:47.851Z,14.80
2022-09-11T18:46:17.165Z,14.80
2022-09-11T18:48:45.299Z,14.70
2022-09-11T18:51:15.159Z,14.70
2022-09-11T18:53:43.538Z,14.60
2022-09-11T18:56:11.847Z,14.60
2022-09-11T18:58:41.756Z,14.50
2022-09-11T19:01:12.113Z,14.50
2022-09-11T19:03:42.178Z,14.50
2022-09-11T19:06:12.663Z,14.50
2022-09-11T19:08:41.808Z,14.40
2022-09-11T19:11:11.593Z,14.40
2022-09-11T19:13:39.912Z,14.40
2022-09-11T19:16:08.196Z,14.40
2022-09-11T19:18:38.341Z,14.30
2022-09-11T19:21:10.224Z,14.30
2022-09-11T19:23:40.169Z,14.30
2022-09-11T19:26:11.484Z,14.30
2022-09-11T19:28:41.062Z,14.20
2022-09-11T19:31:09.761Z,14.20
2022-09-11T19:33:39.418Z,14.20
2022-09-11T19:36:11.633Z,14.30
2022-09-11T19:38:41.611Z,14.40
2022-09-11T19:41:10.658Z,14.30
2022-09-11T19:43:38.835Z,14.20
2022-09-11T19:46:09.130Z,14.10
2022-09-11T19:48:38.666Z,14.00
2022-09-11T19:51:10.931Z,14.00
2022-09-11T19:53:39.094Z,13.90
2022-09-11T19:56:07.431Z,13.80
2022-09-11T19:58:35.642Z,13.90
2022-09-11T20:01:06.687Z,13.80
2022-09-11T20:03:34.810Z,13.80
2022-09-11T20:06:03.883Z,13.70
2022-09-11T20:08:33.263Z,13.60
2022-09-11T20:11:03.006Z,13.10
2022-09-11T20:13:31.029Z,12.90
2022-09-11T20:16:03.482Z,12.70
2022-09-11T20:18:31.545Z,12.50
2022-09-11T20:21:02.034Z,12.50
2022-09-11T20:23:29.943Z,12.40
2022-09-11T20:26:11.591Z,12.30
2022-09-11T20:28:42.958Z,12.30
2022-09-11T20:31:15.341Z,12.20
2022-09-11T20:33:44.134Z,12.20
2022-09-11T20:36:12.554Z,12.20
2022-09-11T20:38:40.440Z,12.20
2022-09-11T20:41:11.221Z,12.20
2022-09-11T20:43:39.032Z,12.10
2022-09-11T20:46:07.225Z,12.10
2022-09-11T20:48:36.019Z,12.20
2022-09-11T20:51:04.729Z,12.50
2022-09-11T20:53:32.543Z,12.60
2022-09-11T20:56:04.003Z,12.70
2022-09-11T20:58:33.530Z,12.80
2022-09-11T21:01:01.583Z,12.80
2022-09-11T21:03:30.094Z,13.00
2022-09-11T21:06:00.450Z,13.00
2022-09-11T21:08:28.415Z,13.10
2022-09-11T21:10:56.221Z,13.30
2022-09-11T21:13:24.022Z,13.00
2022-09-11T21:15:53.205Z,12.60
2022-09-11T21:18:20.966Z,12.50
2022-09-11T21:20:54.842Z,12.50
2022-09-11T21:23:22.755Z,12.10
2022-09-11T21:25:52.686Z,11.80
2022-09-11T21:28:20.734Z,11.80
2022-09-11T21:30:48.663Z,11.60
2022-09-11T21:33:18.505Z,11.50
2022-09-11T21:35:52.336Z,11.50
2022-09-11T21:38:20.756Z,11.40
2022-09-11T21:40:48.897Z,11.40
2022-09-11T21:43:16.755Z,11.40
2022-09-11T21:45:44.529Z,11.30
2022-09-11T21:48:12.564Z,11.30
2022-09-11T21:50:42.334Z,11.20
2022-09-11T21:53:11.817Z,11.30
2022-09-11T21:55:40.786Z,11.20
2022-09-11T21:58:09.279Z,11.20
2022-09-11T22:00:42.556Z,11.10
2022-09-11T22:03:12.128Z,11.00
2022-09-11T22:05:43.293Z,11.00
2022-09-11T22:12:00.030Z,10.80
2022-09-11T22:14:28.651Z,10.70
2022-09-11T22:16:56.476Z,10.60
2022-09-11T22:19:24.251Z,10.60
2022-09-11T22:21:53.384Z,10.60
2022-09-11T22:24:21.156Z,10.60
2022-09-11T22:26:49.126Z,10.50
2022-09-11T22:29:17.003Z,10.50
2022-09-11T22:31:45.221Z,10.50
2022-09-11T22:34:14.307Z,10.40
2022-09-11T22:36:42.210Z,10.50
2022-09-11T22:39:11.315Z,10.60
2022-09-11T22:41:39.195Z,10.50
2022-09-11T22:44:08.067Z,10.60
2022-09-11T22:46:35.946Z,10.70
2022-09-11T22:49:04.389Z,10.80
2022-09-11T22:51:33.272Z,10.80
2022-09-11T22:54:02.777Z,10.80
2022-09-11T22:56:31.901Z,10.80
2022-09-11T22:58:59.814Z,11.00
2022-09-11T23:01:28.070Z,11.00
2022-09-11T23:03:56.017Z,10.80
2022-09-11T23:06:41.515Z,10.70
2022-09-11T23:09:12.791Z,10.60
2022-09-11T23:11:41.917Z,10.50
2022-09-11T23:14:14.180Z,10.30
2022-09-11T23:16:43.415Z,10.10
2022-09-11T23:19:13.892Z,9.90
2022-09-11T23:21:42.392Z,9.70
2022-09-11T23:24:14.194Z,9.60
2022-09-11T23:26:44.067Z,9.60
2022-09-11T23:29:12.262Z,9.60
2022-09-11T23:31:40.147Z,9.60
2022-09-11T23:34:09.673Z,9.60
2022-09-11T23:36:37.735Z,9.70
2022-09-11T23:39:05.727Z,9.70
2022-09-11T23:41:33.960Z,9.80
2022-09-11T23:44:03.579Z,9.70
2022-09-11T23:46:31.657Z,9.60
2022-09-11T23:48:59.715Z,9.60
2022-09-11T23:51:27.564Z,9.40
2022-09-11T23:53:55.670Z,9.30
2022-09-11T23:56:23.517Z,9.20
2022-09-11T23:58:52.237Z,9.20
